sensor_id;sensor_type;location;lat;lon;timestamp;temperature;humidity
75164;HTU21D;63746;45.402;37.922;2023-03-01T08:25:44;5.71;70.19
75164;HTU21D;63746;45.402;37.922;2023-03-01T08:28:10;5.77;70.17
75164;HTU21D;63746;45.402;37.922;2023-03-01T08:30:37;5.83;70.02
75164;HTU21D;63746;45.402;37.922;2023-03-01T08:33:03;5.89;69.97
75164;HTU21D;63746;45.402;37.922;2023-03-01T08:35:29;5.96;69.93
75164;HTU21D;63746;45.402;37.922;2023-03-01T08:37:55;6.04;69.91
75164;HTU21D;63746;45.402;37.922;2023-03-01T08:40:21;6.10;69.91
75164;HTU21D;63746;45.402;37.922;2023-03-01T08:42:47;6.17;69.81
75164;HTU21D;63746;45.402;37.922;2023-03-01T08:45:13;6.21;69.66
75164;HTU21D;63746;45.402;37.922;2023-03-01T08:47:44;6.25;69.76
75164;HTU21D;63746;45.402;37.922;2023-03-01T08:50:11;6.36;69.96
75164;HTU21D;63746;45.402;37.922;2023-03-01T08:52:37;6.50;70.10
75164;HTU21D;63746;45.402;37.922;2023-03-01T08:55:03;6.57;69.72
75164;HTU21D;63746;45.402;37.922;2023-03-01T08:57:29;6.58;69.62
75164;HTU21D;63746;45.402;37.922;2023-03-01T08:59:55;6.58;69.52
75164;HTU21D;63746;45.402;37.922;2023-03-01T09:02:22;6.59;69.37
75164;HTU21D;63746;45.402;37.922;2023-03-01T09:04:48;6.61;69.42
75164;HTU21D;63746;45.402;37.922;2023-03-01T09:07:14;6.64;69.39
75164;HTU21D;63746;45.402;37.922;2023-03-01T09:09:39;6.67;69.45
75164;HTU21D;63746;45.402;37.922;2023-03-01T09:12:06;6.72;69.59
75164;HTU21D;63746;45.402;37.922;2023-03-01T09:14:32;6.76;69.56
75164;HTU21D;63746;45.402;37.922;2023-03-01T09:16:58;6.82;69.59
75164;HTU21D;63746;45.402;37.922;2023-03-01T09:19:24;6.87;69.70
75164;HTU21D;63746;45.402;37.922;2023-03-01T09:21:49;6.98;69.82
75164;HTU21D;63746;45.402;37.922;2023-03-01T09:24:22;7.08;69.82
75164;HTU21D;63746;45.402;37.922;2023-03-01T09:26:49;7.16;69.65
75164;HTU21D;63746;45.402;37.922;2023-03-01T09:29:16;7.16;69.38
75164;HTU21D;63746;45.402;37.922;2023-03-01T09:31:42;7.15;69.27
75164;HTU21D;63746;45.402;37.922;2023-03-01T09:34:09;7.12;69.12
75164;HTU21D;63746;45.402;37.922;2023-03-01T09:36:35;7.07;69.05
75164;HTU21D;63746;45.402;37.922;2023-03-01T09:39:02;7.03;69.06
75164;HTU21D;63746;45.402;37.922;2023-03-01T09:44:21;7.02;69.12
75164;HTU21D;63746;45.402;37.922;2023-03-01T09:46:50;7.03;69.27
75164;HTU21D;63746;45.402;37.922;2023-03-01T09:49:25;7.09;69.39
75164;HTU21D;63746;45.402;37.922;2023-03-01T09:52:33;7.15;69.49
75164;HTU21D;63746;45.402;37.922;2023-03-01T09:54:56;7.28;69.73
75164;HTU21D;63746;45.402;37.922;2023-03-01T09:57:46;7.40;69.55
75164;HTU21D;63746;45.402;37.922;2023-03-01T10:00:46;7.45;69.42
75164;HTU21D;63746;45.402;37.922;2023-03-01T10:06:04;7.55;69.39
75164;HTU21D;63746;45.402;37.922;2023-03-01T10:11:19;7.67;69.36
75164;HTU21D;63746;45.402;37.922;2023-03-01T10:14:15;7.72;69.01
75164;HTU21D;63746;45.402;37.922;2023-03-01T10:16:48;7.74;69.20
75164;HTU21D;63746;45.402;37.922;2023-03-01T10:19:31;7.81;69.26
75164;HTU21D;63746;45.402;37.922;2023-03-01T10:22:04;7.86;69.18
75164;HTU21D;63746;45.402;37.922;2023-03-01T10:24:35;7.85;69.10
75164;HTU21D;63746;45.402;37.922;2023-03-01T10:27:08;7.87;69.18
75164;HTU21D;63746;45.402;37.922;2023-03-01T10:32:34;8.01;69.28
75164;HTU21D;63746;45.402;37.922;2023-03-01T10:35:00;8.11;69.36
75164;HTU21D;63746;45.402;37.922;2023-03-01T10:37:26;8.18;69.27
75164;HTU21D;63746;45.402;37.922;2023-03-01T10:42:35;8.23;68.88
75164;HTU21D;63746;45.402;37.922;2023-03-01T10:50:34;8.34;69.20
75164;HTU21D;63746;45.402;37.922;2023-03-01T10:53:03;8.46;69.33
75164;HTU21D;63746;45.402;37.922;2023-03-01T10:55:37;8.50;68.94
75164;HTU21D;63746;45.402;37.922;2023-03-01T10:58:11;8.47;68.62
75164;HTU21D;63746;45.402;37.922;2023-03-01T11:00:48;8.42;68.51
75164;HTU21D;63746;45.402;37.922;2023-03-01T11:03:18;8.35;68.35
75164;HTU21D;63746;45.402;37.922;2023-03-01T11:06:02;8.28;68.17
75164;HTU21D;63746;45.402;37.922;2023-03-01T11:08:34;8.30;68.68
75164;HTU21D;63746;45.402;37.922;2023-03-01T11:11:32;8.26;68.23
75164;HTU21D;63746;45.402;37.922;2023-03-01T11:14:22;8.19;67.86
75164;HTU21D;63746;45.402;37.922;2023-03-01T11:16:59;8.08;68.06
75164;HTU21D;63746;45.402;37.922;2023-03-01T11:19:26;7.98;68.35
75164;HTU21D;63746;45.402;37.922;2023-03-01T11:22:12;7.86;67.68
75164;HTU21D;63746;45.402;37.922;2023-03-01T11:24:45;7.75;68.25
75164;HTU21D;63746;45.402;37.922;2023-03-01T11:27:25;7.72;68.47
75164;HTU21D;63746;45.402;37.922;2023-03-01T11:30:24;7.74;68.65
75164;HTU21D;63746;45.402;37.922;2023-03-01T11:33:24;7.78;68.55
75164;HTU21D;63746;45.402;37.922;2023-03-01T11:36:01;7.79;68.88
75164;HTU21D;63746;45.402;37.922;2023-03-01T11:38:31;7.83;69.07
75164;HTU21D;63746;45.402;37.922;2023-03-01T11:41:13;7.87;68.75
75164;HTU21D;63746;45.402;37.922;2023-03-01T11:43:47;7.86;68.77
75164;HTU21D;63746;45.402;37.922;2023-03-01T11:46:27;7.85;68.54
75164;HTU21D;63746;45.402;37.922;2023-03-01T11:49:25;7.81;68.41
75164;HTU21D;63746;45.402;37.922;2023-03-01T11:58:14;7.85;68.82
75164;HTU21D;63746;45.402;37.922;2023-03-01T12:00:57;7.83;68.58
75164;HTU21D;63746;45.402;37.922;2023-03-01T12:03:33;7.83;68.83
75164;HTU21D;63746;45.402;37.922;2023-03-01T12:06:24;7.86;68.62
75164;HTU21D;63746;45.402;37.922;2023-03-01T12:20:20;7.74;68.74
75164;HTU21D;63746;45.402;37.922;2023-03-01T12:33:42;7.65;68.59
75164;HTU21D;63746;45.402;37.922;2023-03-01T12:36:39;7.65;68.35
75164;HTU21D;63746;45.402;37.922;2023-03-01T12:47:22;7.60;68.47
75164;HTU21D;63746;45.402;37.922;2023-03-01T12:50:01;7.61;68.68
75164;HTU21D;63746;45.402;37.922;2023-03-01T12:52:51;7.61;68.43
75164;HTU21D;63746;45.402;37.922;2023-03-01T12:55:29;7.62;68.62
75164;HTU21D;63746;45.402;37.922;2023-03-01T13:06:35;7.54;68.31
75164;HTU21D;63746;45.402;37.922;2023-03-01T13:09:19;7.49;68.41
75164;HTU21D;63746;45.402;37.922;2023-03-01T13:11:49;7.46;68.33
75164;HTU21D;63746;45.402;37.922;2023-03-01T13:16:47;7.40;68.52
75164;HTU21D;63746;45.402;37.922;2023-03-01T13:19:21;7.39;68.46
75164;HTU21D;63746;45.402;37.922;2023-03-01T13:21:49;7.42;68.68
75164;HTU21D;63746;45.402;37.922;2023-03-01T13:24:28;7.42;68.55
75164;HTU21D;63746;45.402;37.922;2023-03-01T13:29:48;7.41;68.32
75164;HTU21D;63746;45.402;37.922;2023-03-01T13:32:35;7.37;68.30
75164;HTU21D;63746;45.402;37.922;2023-03-01T13:37:45;7.28;68.45
75164;HTU21D;63746;45.402;37.922;2023-03-01T13:42:53;7.25;68.46
75164;HTU21D;63746;45.402;37.922;2023-03-01T13:45:54;7.24;68.43
75164;HTU21D;63746;45.402;37.922;2023-03-01T13:48:25;7.22;68.34
75164;HTU21D;63746;45.402;37.922;2023-03-01T13:51:07;7.18;68.18
75164;HTU21D;63746;45.402;37.922;2023-03-01T13:53:38;7.10;68.18
75164;HTU21D;63746;45.402;37.922;2023-03-01T13:56:36;7.00;67.68
75164;HTU21D;63746;45.402;37.922;2023-03-01T13:59:05;6.87;68.08
75164;HTU21D;63746;45.402;37.922;2023-03-01T14:01:38;6.81;68.20
75164;HTU21D;63746;45.402;37.922;2023-03-01T14:06:52;6.71;68.33
75164;HTU21D;63746;45.402;37.922;2023-03-01T14:09:27;6.68;68.33
75164;HTU21D;63746;45.402;37.922;2023-03-01T14:14:42;6.65;68.44
75164;HTU21D;63746;45.402;37.922;2023-03-01T14:17:29;6.63;68.55
75164;HTU21D;63746;45.402;37.922;2023-03-01T14:20:12;6.60;68.33
75164;HTU21D;63746;45.402;37.922;2023-03-01T14:22:41;6.53;68.32
75164;HTU21D;63746;45.402;37.922;2023-03-01T14:28:03;6.41;68.33
75164;HTU21D;63746;45.402;37.922;2023-03-01T14:30:42;6.37;68.31
75164;HTU21D;63746;45.402;37.922;2023-03-01T14:33:25;6.33;68.27
75164;HTU21D;63746;45.402;37.922;2023-03-01T14:36:06;6.29;68.35
75164;HTU21D;63746;45.402;37.922;2023-03-01T14:38:37;6.26;68.41
75164;HTU21D;63746;45.402;37.922;2023-03-01T14:41:14;6.22;68.36
75164;HTU21D;63746;45.402;37.922;2023-03-01T14:43:44;6.19;68.42
75164;HTU21D;63746;45.402;37.922;2023-03-01T14:46:21;6.14;68.40
75164;HTU21D;63746;45.402;37.922;2023-03-01T14:49:04;6.13;68.42
75164;HTU21D;63746;45.402;37.922;2023-03-01T14:52:20;6.11;68.46
75164;HTU21D;63746;45.402;37.922;2023-03-01T14:54:28;6.09;68.42
75164;HTU21D;63746;45.402;37.922;2023-03-01T14:56:59;6.06;68.39
75164;HTU21D;63746;45.402;37.922;2023-03-01T14:59:26;6.02;68.40
75164;HTU21D;63746;45.402;37.922;2023-03-01T15:01:55;6.00;68.36
75164;HTU21D;63746;45.402;37.922;2023-03-01T15:04:23;5.98;68.32
75164;HTU21D;63746;45.402;37.922;2023-03-01T15:06:54;5.94;68.30
75164;HTU21D;63746;45.402;37.922;2023-03-01T15:09:22;5.91;68.33
75164;HTU21D;63746;45.402;37.922;2023-03-01T15:11:48;5.86;68.28
75164;HTU21D;63746;45.402;37.922;2023-03-01T15:14:40;5.83;68.23
75164;HTU21D;63746;45.402;37.922;2023-03-01T15:17:36;5.77;68.14
75164;HTU21D;63746;45.402;37.922;2023-03-01T15:20:15;5.75;68.29
75164;HTU21D;63746;45.402;37.922;2023-03-01T15:22:45;5.69;68.34
75164;HTU21D;63746;45.402;37.922;2023-03-01T15:25:18;5.67;68.30
75164;HTU21D;63746;45.402;37.922;2023-03-01T15:27:46;5.64;68.26
75164;HTU21D;63746;45.402;37.922;2023-03-01T15:30:26;5.60;68.25
75164;HTU21D;63746;45.402;37.922;2023-03-01T15:35:49;5.51;68.28
75164;HTU21D;63746;45.402;37.922;2023-03-01T15:38:55;5.49;68.30
75164;HTU21D;63746;45.402;37.922;2023-03-01T15:41:27;5.46;68.38
75164;HTU21D;63746;45.402;37.922;2023-03-01T15:43:58;5.42;68.38
75164;HTU21D;63746;45.402;37.922;2023-03-01T15:46:33;5.40;68.41
75164;HTU21D;63746;45.402;37.922;2023-03-01T15:49:02;5.39;68.41
75164;HTU21D;63746;45.402;37.922;2023-03-01T15:51:34;5.38;68.38
75164;HTU21D;63746;45.402;37.922;2023-03-01T15:54:04;5.33;68.31
75164;HTU21D;63746;45.402;37.922;2023-03-01T15:56:30;5.30;68.32
75164;HTU21D;63746;45.402;37.922;2023-03-01T15:59:00;5.27;68.36
75164;HTU21D;63746;45.402;37.922;2023-03-01T16:01:28;5.26;68.32
75164;HTU21D;63746;45.402;37.922;2023-03-01T16:03:54;5.23;68.18
75164;HTU21D;63746;45.402;37.922;2023-03-01T16:06:22;5.16;68.13
75164;HTU21D;63746;45.402;37.922;2023-03-01T16:08:47;5.10;68.16
75164;HTU21D;63746;45.402;37.922;2023-03-01T16:11:16;5.06;68.12
75164;HTU21D;63746;45.402;37.922;2023-03-01T16:13:43;4.97;67.94
75164;HTU21D;63746;45.402;37.922;2023-03-01T16:16:13;4.87;67.86
75164;HTU21D;63746;45.402;37.922;2023-03-01T16:18:46;4.77;67.82
75164;HTU21D;63746;45.402;37.922;2023-03-01T16:21:14;4.66;67.83
75164;HTU21D;63746;45.402;37.922;2023-03-01T16:23:42;4.56;67.73
75164;HTU21D;63746;45.402;37.922;2023-03-01T16:26:10;4.45;67.76
75164;HTU21D;63746;45.402;37.922;2023-03-01T16:28:36;4.34;67.84
75164;HTU21D;63746;45.402;37.922;2023-03-01T16:31:02;4.27;67.90
75164;HTU21D;63746;45.402;37.922;2023-03-01T16:33:28;4.18;67.96
75164;HTU21D;63746;45.402;37.922;2023-03-01T16:35:54;4.12;68.09
75164;HTU21D;63746;45.402;37.922;2023-03-01T16:38:21;4.06;68.30
75164;HTU21D;63746;45.402;37.922;2023-03-01T16:40:49;4.04;68.48
75164;HTU21D;63746;45.402;37.922;2023-03-01T16:43:15;4.03;68.58
75164;HTU21D;63746;45.402;37.922;2023-03-01T16:45:41;4.01;68.52
75164;HTU21D;63746;45.402;37.922;2023-03-01T16:48:11;3.98;68.49
75164;HTU21D;63746;45.402;37.922;2023-03-01T16:50:37;3.94;68.47
75164;HTU21D;63746;45.402;37.922;2023-03-01T16:53:03;3.90;68.46
75164;HTU21D;63746;45.402;37.922;2023-03-01T16:55:29;3.84;68.49
75164;HTU21D;63746;45.402;37.922;2023-03-01T16:57:55;3.82;68.55
75164;HTU21D;63746;45.402;37.922;2023-03-01T17:00:21;3.79;68.55
75164;HTU21D;63746;45.402;37.922;2023-03-01T17:02:48;3.77;68.68
75164;HTU21D;63746;45.402;37.922;2023-03-01T17:05:14;3.78;68.77
75164;HTU21D;63746;45.402;37.922;2023-03-01T17:07:40;3.79;68.80
75164;HTU21D;63746;45.402;37.922;2023-03-01T17:10:09;3.80;68.84
75164;HTU21D;63746;45.402;37.922;2023-03-01T17:12:36;3.82;68.81
75164;HTU21D;63746;45.402;37.922;2023-03-01T17:15:04;3.84;68.79
75164;HTU21D;63746;45.402;37.922;2023-03-01T17:17:31;3.85;68.81
75164;HTU21D;63746;45.402;37.922;2023-03-01T17:19:57;3.86;68.82
75164;HTU21D;63746;45.402;37.922;2023-03-01T17:22:23;3.88;68.72
75164;HTU21D;63746;45.402;37.922;2023-03-01T17:24:49;3.87;68.64
75164;HTU21D;63746;45.402;37.922;2023-03-01T17:27:15;3.87;68.65
75164;HTU21D;63746;45.402;37.922;2023-03-01T17:29:41;3.85;68.62
75164;HTU21D;63746;45.402;37.922;2023-03-01T17:32:08;3.86;68.54
75164;HTU21D;63746;45.402;37.922;2023-03-01T17:34:34;3.82;68.39
75164;HTU21D;63746;45.402;37.922;2023-03-01T17:37:00;3.76;68.24
75164;HTU21D;63746;45.402;37.922;2023-03-01T17:39:26;3.69;68.18
75164;HTU21D;63746;45.402;37.922;2023-03-01T17:41:54;3.63;68.27
75164;HTU21D;63746;45.402;37.922;2023-03-01T17:44:20;3.60;68.34
75164;HTU21D;63746;45.402;37.922;2023-03-01T17:46:47;3.59;68.44
75164;HTU21D;63746;45.402;37.922;2023-03-01T17:49:13;3.58;68.46
75164;HTU21D;63746;45.402;37.922;2023-03-01T17:51:39;3.56;68.46
75164;HTU21D;63746;45.402;37.922;2023-03-01T17:54:05;3.55;68.47
75164;HTU21D;63746;45.402;37.922;2023-03-01T17:56:31;3.53;68.49
75164;HTU21D;63746;45.402;37.922;2023-03-01T17:58:58;3.52;68.49
75164;HTU21D;63746;45.402;37.922;2023-03-01T18:01:25;3.50;68.42
75164;HTU21D;63746;45.402;37.922;2023-03-01T18:03:52;3.47;68.32
75164;HTU21D;63746;45.402;37.922;2023-03-01T18:06:28;3.40;68.14
75164;HTU21D;63746;45.402;37.922;2023-03-01T18:08:54;3.31;67.84
75164;HTU21D;63746;45.402;37.922;2023-03-01T18:11:21;3.21;68.03
75164;HTU21D;63746;45.402;37.922;2023-03-01T18:13:48;3.13;68.15
75164;HTU21D;63746;45.402;37.922;2023-03-01T18:16:17;3.08;68.29
75164;HTU21D;63746;45.402;37.922;2023-03-01T18:18:44;3.02;68.35
75164;HTU21D;63746;45.402;37.922;2023-03-01T18:21:11;3.00;68.45
75164;HTU21D;63746;45.402;37.922;2023-03-01T18:23:37;2.98;68.49
75164;HTU21D;63746;45.402;37.922;2023-03-01T18:26:06;2.96;68.55
75164;HTU21D;63746;45.402;37.922;2023-03-01T18:28:33;2.96;68.61
75164;HTU21D;63746;45.402;37.922;2023-03-01T18:31:02;2.95;68.61
75164;HTU21D;63746;45.402;37.922;2023-03-01T18:33:29;2.91;68.50
75164;HTU21D;63746;45.402;37.922;2023-03-01T18:35:55;2.88;68.52
75164;HTU21D;63746;45.402;37.922;2023-03-01T18:38:22;2.87;68.61
75164;HTU21D;63746;45.402;37.922;2023-03-01T18:40:53;2.86;68.70
75164;HTU21D;63746;45.402;37.922;2023-03-01T18:43:20;2.87;68.74
75164;HTU21D;63746;45.402;37.922;2023-03-01T18:45:46;2.87;68.73
75164;HTU21D;63746;45.402;37.922;2023-03-01T18:48:13;2.88;68.77
75164;HTU21D;63746;45.402;37.922;2023-03-01T18:50:41;2.89;68.76
75164;HTU21D;63746;45.402;37.922;2023-03-01T18:53:07;2.89;68.74
75164;HTU21D;63746;45.402;37.922;2023-03-01T18:55:36;2.88;68.66
75164;HTU21D;63746;45.402;37.922;2023-03-01T18:58:02;2.86;68.65
75164;HTU21D;63746;45.402;37.922;2023-03-01T19:00:28;2.84;68.62
75164;HTU21D;63746;45.402;37.922;2023-03-01T19:02:54;2.84;68.60
75164;HTU21D;63746;45.402;37.922;2023-03-01T19:05:20;2.82;68.54
75164;HTU21D;63746;45.402;37.922;2023-03-01T19:07:48;2.80;68.79
75164;HTU21D;63746;45.402;37.922;2023-03-01T19:10:14;2.84;68.87
75164;HTU21D;63746;45.402;37.922;2023-03-01T19:12:40;2.83;68.73
75164;HTU21D;63746;45.402;37.922;2023-03-01T19:15:06;2.81;68.64
75164;HTU21D;63746;45.402;37.922;2023-03-01T19:17:32;2.78;68.66
75164;HTU21D;63746;45.402;37.922;2023-03-01T19:19:59;2.75;68.61
75164;HTU21D;63746;45.402;37.922;2023-03-01T19:22:28;2.73;68.58
75164;HTU21D;63746;45.402;37.922;2023-03-01T19:24:54;2.70;68.53
75164;HTU21D;63746;45.402;37.922;2023-03-01T19:27:20;2.66;68.55
75164;HTU21D;63746;45.402;37.922;2023-03-01T19:29:46;2.64;68.57
75164;HTU21D;63746;45.402;37.922;2023-03-01T19:32:12;2.61;68.59
75164;HTU21D;63746;45.402;37.922;2023-03-01T19:34:38;2.59;68.61
75164;HTU21D;63746;45.402;37.922;2023-03-01T19:37:06;2.56;68.58
75164;HTU21D;63746;45.402;37.922;2023-03-01T19:39:35;2.54;68.64
75164;HTU21D;63746;45.402;37.922;2023-03-01T19:42:01;2.54;68.69
75164;HTU21D;63746;45.402;37.922;2023-03-01T19:44:27;2.52;68.67
75164;HTU21D;63746;45.402;37.922;2023-03-01T19:46:54;2.50;68.68
75164;HTU21D;63746;45.402;37.922;2023-03-01T19:49:25;2.49;68.73
75164;HTU21D;63746;45.402;37.922;2023-03-01T19:51:53;2.50;68.78
75164;HTU21D;63746;45.402;37.922;2023-03-01T19:54:18;2.49;68.77
75164;HTU21D;63746;45.402;37.922;2023-03-01T19:56:47;2.46;68.78
75164;HTU21D;63746;45.402;37.922;2023-03-01T19:59:13;2.46;68.75
75164;HTU21D;63746;45.402;37.922;2023-03-01T20:01:39;2.44;68.78
75164;HTU21D;63746;45.402;37.922;2023-03-01T20:04:08;2.44;68.78
75164;HTU21D;63746;45.402;37.922;2023-03-01T20:06:35;2.41;68.70
75164;HTU21D;63746;45.402;37.922;2023-03-01T20:09:03;2.40;68.65
75164;HTU21D;63746;45.402;37.922;2023-03-01T20:11:29;2.35;68.68
75164;HTU21D;63746;45.402;37.922;2023-03-01T20:13:56;2.35;68.77
75164;HTU21D;63746;45.402;37.922;2023-03-01T20:16:22;2.34;68.87
75164;HTU21D;63746;45.402;37.922;2023-03-01T20:18:49;2.36;68.99
75164;HTU21D;63746;45.402;37.922;2023-03-01T20:21:15;2.38;69.06
75164;HTU21D;63746;45.402;37.922;2023-03-01T20:23:43;2.41;69.04
75164;HTU21D;63746;45.402;37.922;2023-03-01T20:26:10;2.43;69.01
75164;HTU21D;63746;45.402;37.922;2023-03-01T20:28:44;2.44;69.04
75164;HTU21D;63746;45.402;37.922;2023-03-01T20:31:13;2.49;69.07
75164;HTU21D;63746;45.402;37.922;2023-03-01T20:33:39;2.50;69.07
75164;HTU21D;63746;45.402;37.922;2023-03-01T20:36:06;2.53;69.07
75164;HTU21D;63746;45.402;37.922;2023-03-01T20:38:33;2.55;69.04
75164;HTU21D;63746;45.402;37.922;2023-03-01T20:41:01;2.57;69.02
75164;HTU21D;63746;45.402;37.922;2023-03-01T20:43:28;2.58;68.97
75164;HTU21D;63746;45.402;37.922;2023-03-01T20:45:54;2.59;68.93
75164;HTU21D;63746;45.402;37.922;2023-03-01T20:48:21;2.60;68.91
75164;HTU21D;63746;45.402;37.922;2023-03-01T20:50:47;2.61;68.87
75164;HTU21D;63746;45.402;37.922;2023-03-01T20:53:13;2.61;68.87
75164;HTU21D;63746;45.402;37.922;2023-03-01T20:55:38;2.64;68.87
75164;HTU21D;63746;45.402;37.922;2023-03-01T20:58:04;2.65;68.89
75164;HTU21D;63746;45.402;37.922;2023-03-01T21:00:30;2.66;68.87
75164;HTU21D;63746;45.402;37.922;2023-03-01T21:02:56;2.67;68.86
75164;HTU21D;63746;45.402;37.922;2023-03-01T21:05:22;2.67;68.84
75164;HTU21D;63746;45.402;37.922;2023-03-01T21:07:49;2.68;68.83
75164;HTU21D;63746;45.402;37.922;2023-03-01T21:10:15;2.68;68.81
75164;HTU21D;63746;45.402;37.922;2023-03-01T21:12:41;2.69;68.83
75164;HTU21D;63746;45.402;37.922;2023-03-01T21:15:07;2.69;68.82
75164;HTU21D;63746;45.402;37.922;2023-03-01T21:17:34;2.70;68.80
75164;HTU21D;63746;45.402;37.922;2023-03-01T21:20:00;2.70;68.81
75164;HTU21D;63746;45.402;37.922;2023-03-01T21:22:25;2.70;68.80
75164;HTU21D;63746;45.402;37.922;2023-03-01T21:24:53;2.71;68.81
75164;HTU21D;63746;45.402;37.922;2023-03-01T21:27:19;2.71;68.81
75164;HTU21D;63746;45.402;37.922;2023-03-01T21:29:45;2.72;68.82
75164;HTU21D;63746;45.402;37.922;2023-03-01T21:32:12;2.72;68.83
75164;HTU21D;63746;45.402;37.922;2023-03-01T21:34:39;2.73;68.84
75164;HTU21D;63746;45.402;37.922;2023-03-01T21:37:06;2.74;68.83
75164;HTU21D;63746;45.402;37.922;2023-03-01T21:39:33;2.75;68.85
75164;HTU21D;63746;45.402;37.922;2023-03-01T21:42:01;2.75;68.84
75164;HTU21D;63746;45.402;37.922;2023-03-01T21:44:28;2.76;68.83
75164;HTU21D;63746;45.402;37.922;2023-03-01T21:46:55;2.76;68.84
75164;HTU21D;63746;45.402;37.922;2023-03-01T21:49:27;2.78;68.83
75164;HTU21D;63746;45.402;37.922;2023-03-01T21:51:53;2.78;68.82
75164;HTU21D;63746;45.402;37.922;2023-03-01T21:54:19;2.78;68.82
75164;HTU21D;63746;45.402;37.922;2023-03-01T21:56:46;2.79;68.80
75164;HTU21D;63746;45.402;37.922;2023-03-01T21:59:30;2.80;68.82
75164;HTU21D;63746;45.402;37.922;2023-03-01T22:01:56;2.80;68.81
75164;HTU21D;63746;45.402;37.922;2023-03-01T22:04:21;2.79;68.74
75164;HTU21D;63746;45.402;37.922;2023-03-01T22:06:49;2.78;68.67
75164;HTU21D;63746;45.402;37.922;2023-03-01T22:09:20;2.75;68.74
75164;HTU21D;63746;45.402;37.922;2023-03-01T22:11:51;2.73;68.76
75164;HTU21D;63746;45.402;37.922;2023-03-01T22:14:19;2.71;68.81
75164;HTU21D;63746;45.402;37.922;2023-03-01T22:16:46;2.70;68.80
75164;HTU21D;63746;45.402;37.922;2023-03-01T22:19:14;2.70;68.77
75164;HTU21D;63746;45.402;37.922;2023-03-01T22:21:42;2.68;68.75
75164;HTU21D;63746;45.402;37.922;2023-03-01T22:24:10;2.69;68.78
75164;HTU21D;63746;45.402;37.922;2023-03-01T22:26:41;2.69;68.82
75164;HTU21D;63746;45.402;37.922;2023-03-01T22:29:13;2.70;68.84
75164;HTU21D;63746;45.402;37.922;2023-03-01T22:31:40;2.70;68.81
75164;HTU21D;63746;45.402;37.922;2023-03-01T22:34:06;2.71;68.78
75164;HTU21D;63746;45.402;37.922;2023-03-01T22:36:32;2.69;68.75
75164;HTU21D;63746;45.402;37.922;2023-03-01T22:38:58;2.70;68.72
75164;HTU21D;63746;45.402;37.922;2023-03-01T22:41:42;2.70;68.78
75164;HTU21D;63746;45.402;37.922;2023-03-01T22:44:11;2.69;68.80
75164;HTU21D;63746;45.402;37.922;2023-03-01T22:46:37;2.72;68.83
75164;HTU21D;63746;45.402;37.922;2023-03-01T22:49:03;2.71;68.87
75164;HTU21D;63746;45.402;37.922;2023-03-01T22:51:33;2.72;68.85
75164;HTU21D;63746;45.402;37.922;2023-03-01T22:54:00;2.73;68.81
75164;HTU21D;63746;45.402;37.922;2023-03-01T22:56:29;2.72;68.70
75164;HTU21D;63746;45.402;37.922;2023-03-01T22:59:00;2.69;68.57
75164;HTU21D;63746;45.402;37.922;2023-03-01T23:01:30;2.62;68.46
75164;HTU21D;63746;45.402;37.922;2023-03-01T23:03:56;2.56;68.40
75164;HTU21D;63746;45.402;37.922;2023-03-01T23:06:23;2.52;68.40
75164;HTU21D;63746;45.402;37.922;2023-03-01T23:08:54;2.47;68.46
75164;HTU21D;63746;45.402;37.922;2023-03-01T23:11:22;2.45;68.58
75164;HTU21D;63746;45.402;37.922;2023-03-01T23:13:49;2.43;68.69
75164;HTU21D;63746;45.402;37.922;2023-03-01T23:16:16;2.43;68.77
75164;HTU21D;63746;45.402;37.922;2023-03-01T23:18:42;2.43;68.77
75164;HTU21D;63746;45.402;37.922;2023-03-01T23:21:14;2.42;68.77
75164;HTU21D;63746;45.402;37.922;2023-03-01T23:23:41;2.41;68.67
75164;HTU21D;63746;45.402;37.922;2023-03-01T23:26:07;2.38;68.62
75164;HTU21D;63746;45.402;37.922;2023-03-01T23:28:34;2.36;68.68
75164;HTU21D;63746;45.402;37.922;2023-03-01T23:31:10;2.36;68.78
75164;HTU21D;63746;45.402;37.922;2023-03-01T23:33:38;2.36;68.75
75164;HTU21D;63746;45.402;37.922;2023-03-01T23:36:18;2.32;68.68
75164;HTU21D;63746;45.402;37.922;2023-03-01T23:38:46;2.30;68.66
75164;HTU21D;63746;45.402;37.922;2023-03-01T23:41:14;2.29;68.71
75164;HTU21D;63746;45.402;37.922;2023-03-01T23:43:51;2.27;68.75
75164;HTU21D;63746;45.402;37.922;2023-03-01T23:46:19;2.26;68.77
75164;HTU21D;63746;45.402;37.922;2023-03-01T23:48:45;2.25;68.70
75164;HTU21D;63746;45.402;37.922;2023-03-01T23:51:11;2.22;68.65
75164;HTU21D;63746;45.402;37.922;2023-03-01T23:53:44;2.17;68.61
75164;HTU21D;63746;45.402;37.922;2023-03-01T23:56:31;2.13;68.65
75164;HTU21D;63746;45.402;37.922;2023-03-01T23:59:00;2.12;68.75
